Time,TemperatureF,DewpointF,PressureIn,WindDirection,WindDirectionDegrees,WindSpeedMPH,WindSpeedGustMPH,Humidity,HourlyPrecipIn,Conditions,Clouds,dailyrainin,SoftwareType,DateUTC
2013-06-02 00:01:00,60.1,56.8,29.92,WNW,285,0.0,0.0,89,0.00,RA,,0.00,WeatherDisplay:10.37,2013-06-02 05:01:00,
2013-06-02 00:06:00,59.9,56.6,29.92,NW,307,0.8,0.0,89,0.00,RA,,0.00,WeatherDisplay:10.37,2013-06-02 05:06:00,
2013-06-02 00:11:00,60.0,56.7,29.92,NW,309,0.0,0.0,89,0.00,,,0.00,WeatherDisplay:10.37,2013-06-02 05:11:00,
2013-06-02 00:16:00,59.9,56.6,29.92,WNW,297,0.0,0.0,89,0.00,,,0.00,WeatherDisplay:10.37,2013-06-02 05:16:00,
2013-06-02 00:21:00,59.9,56.6,29.92,NW,309,0.0,0.0,89,0.00,,,0.00,WeatherDisplay:10.37,2013-06-02 05:21:00,
2013-06-02 00:26:00,59.8,56.9,29.92,WNW,302,0.0,0.0,90,0.00,,,0.00,WeatherDisplay:10.37,2013-06-02 05:26:00,
2013-06-02 00:31:00,59.6,56.7,29.92,NW,305,0.0,0.0,90,0.00,,,0.00,WeatherDisplay:10.37,2013-06-02 05:31:00,
2013-06-02 00:36:00,59.7,56.8,29.92,WNW,297,0.9,0.0,90,0.00,,,0.00,WeatherDisplay:10.37,2013-06-02 05:36:00,
2013-06-02 00:41:00,59.8,56.9,29.92,WNW,298,0.1,2.3,90,0.00,,,0.00,WeatherDisplay:10.37,2013-06-02 05:41:00,
2013-06-02 00:46:00,59.8,56.9,29.92,NW,305,1.4,2.3,90,0.00,,,0.00,WeatherDisplay:10.37,2013-06-02 05:46:00,
2013-06-02 00:51:00,59.8,56.6,29.92,WNW,297,0.0,0.0,89,0.00,,,0.00,WeatherDisplay:10.37,2013-06-02 05:51:00,
2013-06-02 00:56:00,59.8,56.9,29.92,WNW,296,1.2,4.6,90,0.00,,,0.00,WeatherDisplay:10.37,2013-06-02 05:56:00,
2013-06-02 01:01:00,59.9,57.0,29.92,NW,308,0.8,5.0,90,0.00,,,0.00,WeatherDisplay:10.37,2013-06-02 06:01:00,
2013-06-02 01:06:00,59.8,56.9,29.92,NW,309,2.0,0.0,90,0.00,,,0.00,WeatherDisplay:10.37,2013-06-02 06:06:00,
2013-06-02 01:11:00,59.8,56.9,29.92,NW,307,1.6,8.1,90,0.00,,,0.00,WeatherDisplay:10.37,2013-06-02 06:11:00,
2013-06-02 01:16:00,59.8,56.9,29.92,NW,321,1.4,3.5,90,0.00,,,0.00,WeatherDisplay:10.37,2013-06-02 06:16:00,
2013-06-02 01:21:00,59.7,56.8,29.92,NW,307,0.0,1.1,90,0.00,,,0.00,WeatherDisplay:10.37,2013-06-02 06:21:00,
2013-06-02 01:26:00,59.7,56.8,29.93,NW,307,0.5,3.5,90,0.00,,,0.00,WeatherDisplay:10.37,2013-06-02 06:26:00,
2013-06-02 01:31:00,59.6,56.7,29.93,WNW,298,0.3,6.0,90,0.00,,,0.00,WeatherDisplay:10.37,2013-06-02 06:31:00,
2013-06-02 01:36:00,59.4,56.5,29.93,WNW,284,0.6,3.5,90,0.00,,,0.00,WeatherDisplay:10.37,2013-06-02 06:36:00,
2013-06-02 01:41:00,59.4,56.5,29.93,WNW,288,0.0,0.0,90,0.00,,,0.00,WeatherDisplay:10.37,2013-06-02 06:41:00,
2013-06-02 01:46:00,59.2,56.6,29.93,NNW,340,0.0,0.0,91,0.00,,,0.00,WeatherDisplay:10.37,2013-06-02 06:46:00,
2013-06-02 01:52:00,59.1,56.5,29.93,WNW,285,0.1,0.0,91,0.00,,,0.00,WeatherDisplay:10.37,2013-06-02 06:52:00,
2013-06-02 01:57:00,58.9,56.3,29.93,WNW,283,0.0,0.0,91,0.00,,,0.00,WeatherDisplay:10.37,2013-06-02 06:57:00,
2013-06-02 02:02:00,58.7,56.4,29.93,WNW,295,0.0,0.0,92,0.00,,,0.00,WeatherDisplay:10.37,2013-06-02 07:02:00,
2013-06-02 02:07:00,58.6,56.3,29.93,WNW,286,0.0,0.0,92,0.00,,,0.00,WeatherDisplay:10.37,2013-06-02 07:07:00,
2013-06-02 02:12:00,58.6,56.3,29.93,WNW,294,0.0,0.0,92,0.00,,,0.00,WeatherDisplay:10.37,2013-06-02 07:12:00,
2013-06-02 02:17:00,58.5,56.2,29.93,WNW,286,0.0,0.0,92,0.00,,,0.00,WeatherDisplay:10.37,2013-06-02 07:17:00,
2013-06-02 02:22:00,58.4,56.4,29.93,WNW,292,0.0,0.0,93,0.00,,,0.00,WeatherDisplay:10.37,2013-06-02 07:22:00,
2013-06-02 02:27:00,58.4,56.1,29.93,WNW,294,0.0,0.0,92,0.00,,,0.00,WeatherDisplay:10.37,2013-06-02 07:27:00,
2013-06-02 02:32:00,58.3,56.3,29.93,WNW,288,0.0,0.0,93,0.00,,,0.00,WeatherDisplay:10.37,2013-06-02 07:32:00,
2013-06-02 02:37:00,58.2,56.2,29.93,WNW,284,0.0,0.0,93,0.00,,,0.00,WeatherDisplay:10.37,2013-06-02 07:37:00,
2013-06-02 02:42:00,58.0,56.0,29.93,WNW,290,0.0,0.0,93,0.00,,,0.00,WeatherDisplay:10.37,2013-06-02 07:42:00,
2013-06-02 02:47:00,57.7,55.7,29.93,WSW,245,0.0,0.0,93,0.00,,,0.00,WeatherDisplay:10.37,2013-06-02 07:47:00,
2013-06-02 02:52:00,57.5,55.5,29.93,West,271,0.0,0.0,93,0.00,,,0.00,WeatherDisplay:10.37,2013-06-02 07:52:00,
2013-06-02 02:57:00,57.4,55.4,29.93,WNW,283,0.0,0.0,93,0.00,,,0.00,WeatherDisplay:10.37,2013-06-02 07:57:00,
2013-06-02 03:02:00,57.2,55.5,29.93,WNW,300,0.0,0.0,94,0.00,,,0.00,WeatherDisplay:10.37,2013-06-02 08:02:00,
2013-06-02 03:07:00,57.2,55.5,29.92,WNW,298,0.0,0.0,94,0.00,,,0.00,WeatherDisplay:10.37,2013-06-02 08:07:00,
2013-06-02 03:12:00,57.1,55.4,29.93,West,270,0.0,0.0,94,0.00,,,0.00,WeatherDisplay:10.37,2013-06-02 08:12:00,
2013-06-02 03:17:00,57.0,55.3,29.93,West,275,0.0,0.0,94,0.00,,,0.00,WeatherDisplay:10.37,2013-06-02 08:17:00,
2013-06-02 03:22:00,56.9,55.2,29.93,West,281,0.0,0.0,94,0.00,,,0.00,WeatherDisplay:10.37,2013-06-02 08:22:00,
2013-06-02 03:27:00,56.8,55.4,29.93,West,281,0.0,0.0,95,0.00,,,0.00,WeatherDisplay:10.37,2013-06-02 08:27:00,
2013-06-02 03:32:00,56.7,55.3,29.93,West,267,0.0,0.0,95,0.00,,,0.00,WeatherDisplay:10.37,2013-06-02 08:32:00,
2013-06-02 03:37:00,56.5,55.1,29.93,SW,232,0.0,0.0,95,0.00,,,0.00,WeatherDisplay:10.37,2013-06-02 08:37:00,
2013-06-02 03:42:00,56.4,55.0,29.93,SW,229,0.0,0.0,95,0.00,,,0.00,WeatherDisplay:10.37,2013-06-02 08:42:00,
2013-06-02 03:47:00,56.1,54.7,29.93,SW,229,0.0,0.0,95,0.00,,,0.00,WeatherDisplay:10.37,2013-06-02 08:47:00,
2013-06-02 03:52:00,55.9,54.5,29.92,SW,229,0.0,0.0,95,0.00,,,0.00,WeatherDisplay:10.37,2013-06-02 08:52:00,
2013-06-02 03:57:00,55.7,54.3,29.93,West,263,0.0,0.0,95,0.00,,,0.00,WeatherDisplay:10.37,2013-06-02 08:57:00,
2013-06-02 04:02:00,56.1,56.1,29.93,West,275,0.0,0.0,100,0.00,,,0.00,WeatherDisplay:10.37,2013-06-02 09:02:00,
2013-06-02 04:07:00,56.1,56.1,29.92,West,276,0.0,0.0,100,0.00,,,0.00,WeatherDisplay:10.37,2013-06-02 09:07:00,
2013-06-02 04:12:00,56.1,56.1,29.92,West,277,0.0,0.0,100,0.00,,,0.00,WeatherDisplay:10.37,2013-06-02 09:12:00,
2013-06-02 04:17:00,56.3,56.3,29.92,West,276,0.0,0.0,100,0.00,,,0.00,WeatherDisplay:10.37,2013-06-02 09:17:00,
2013-06-02 04:22:00,56.1,54.7,29.93,West,276,0.0,0.0,95,0.00,,,0.00,WeatherDisplay:10.37,2013-06-02 09:22:00,
2013-06-02 04:27:00,55.9,55.9,29.93,West,277,0.0,0.0,100,0.00,,,0.00,WeatherDisplay:10.37,2013-06-02 09:27:00,
2013-06-02 04:32:00,55.7,55.7,29.92,West,277,0.0,0.0,100,0.00,,,0.00,WeatherDisplay:10.37,2013-06-02 09:32:00,
2013-06-02 04:37:00,55.6,55.6,29.92,West,276,0.0,0.0,100,0.00,,,0.00,WeatherDisplay:10.37,2013-06-02 09:37:00,
2013-06-02 04:42:00,55.8,55.8,29.93,WNW,284,0.0,0.0,100,0.00,,,0.00,WeatherDisplay:10.37,2013-06-02 09:42:00,
2013-06-02 04:47:00,55.9,55.9,29.93,WNW,284,0.0,0.0,100,0.00,,,0.00,WeatherDisplay:10.37,2013-06-02 09:47:00,
2013-06-02 04:52:00,55.8,55.8,29.93,WNW,287,0.0,0.0,100,0.00,,,0.00,WeatherDisplay:10.37,2013-06-02 09:52:00,
2013-06-02 04:57:00,55.9,55.9,29.93,WNW,288,0.0,0.0,100,0.00,,,0.00,WeatherDisplay:10.37,2013-06-02 09:57:00,
2013-06-02 05:02:00,55.9,55.9,29.93,WNW,286,0.0,0.0,100,0.00,,,0.00,WeatherDisplay:10.37,2013-06-02 10:02:00,
2013-06-02 05:07:00,55.9,55.9,29.93,WNW,288,0.0,0.0,100,0.00,,,0.00,WeatherDisplay:10.37,2013-06-02 10:07:00,
2013-06-02 05:12:00,55.7,55.7,29.93,WNW,288,0.0,0.0,100,0.00,,,0.00,WeatherDisplay:10.37,2013-06-02 10:12:00,
2013-06-02 05:17:00,55.7,55.7,29.93,NW,307,0.0,0.0,100,0.00,,,0.00,WeatherDisplay:10.37,2013-06-02 10:17:00,
2013-06-02 05:22:00,55.6,55.6,29.93,WNW,290,0.0,0.0,100,0.00,,,0.00,WeatherDisplay:10.37,2013-06-02 10:22:00,
2013-06-02 05:27:00,55.7,55.7,29.93,NW,319,0.0,0.0,100,0.00,CLR,,0.00,WeatherDisplay:10.37,2013-06-02 10:27:00,
2013-06-02 05:32:00,55.8,55.8,29.93,WNW,298,0.0,0.0,100,0.00,CLR,,0.00,WeatherDisplay:10.37,2013-06-02 10:32:00,
2013-06-02 05:37:00,55.8,55.8,29.93,WNW,300,0.0,1.1,100,0.00,CLR,,0.00,WeatherDisplay:10.37,2013-06-02 10:37:00,
2013-06-02 05:42:00,55.8,55.8,29.93,WNW,285,0.0,0.0,100,0.00,CLR,,0.00,WeatherDisplay:10.37,2013-06-02 10:42:00,
2013-06-02 05:47:00,55.6,55.6,29.93,WNW,295,0.0,0.0,100,0.00,CLR,,0.00,WeatherDisplay:10.37,2013-06-02 10:47:00,
2013-06-02 05:52:00,55.5,55.5,29.94,WNW,296,0.0,0.0,100,0.00,CLR,,0.00,WeatherDisplay:10.37,2013-06-02 10:52:00,
2013-06-02 05:57:00,55.6,55.6,29.94,West,276,0.0,0.0,100,0.00,CLR,,0.00,WeatherDisplay:10.37,2013-06-02 10:57:00,
2013-06-02 06:02:00,55.6,55.6,29.94,WNW,288,0.0,0.0,100,0.00,CLR,,0.00,WeatherDisplay:10.37,2013-06-02 11:02:00,
2013-06-02 06:07:00,55.5,55.5,29.95,WNW,295,0.0,0.0,100,0.00,CLR,,0.00,WeatherDisplay:10.37,2013-06-02 11:07:00,
2013-06-02 06:12:00,55.5,55.5,29.95,WNW,283,0.0,0.0,100,0.00,CLR,,0.00,WeatherDisplay:10.37,2013-06-02 11:12:00,
2013-06-02 06:17:00,55.5,55.5,29.95,WNW,291,0.0,0.0,100,0.00,CLR,,0.00,WeatherDisplay:10.37,2013-06-02 11:17:00,
2013-06-02 06:22:00,55.5,55.5,29.95,WNW,295,0.0,0.0,100,0.00,CLR,,0.00,WeatherDisplay:10.37,2013-06-02 11:22:00,
2013-06-02 06:27:00,55.6,55.6,29.95,NW,312,0.5,3.5,100,0.00,CLR,,0.00,WeatherDisplay:10.37,2013-06-02 11:27:00,
2013-06-02 06:32:00,55.7,55.7,29.95,WNW,291,0.0,1.1,100,0.00,CLR,,0.00,WeatherDisplay:10.37,2013-06-02 11:32:00,
2013-06-02 06:37:00,55.7,55.7,29.96,WNW,285,0.0,0.0,100,0.00,CLR,,0.00,WeatherDisplay:10.37,2013-06-02 11:37:00,
2013-06-02 06:42:00,55.7,55.7,29.96,WNW,283,0.0,0.0,100,0.00,CLR,,0.00,WeatherDisplay:10.37,2013-06-02 11:42:00,
2013-06-02 06:47:00,55.8,55.8,29.96,West,274,0.0,0.0,100,0.00,CLR,,0.00,WeatherDisplay:10.37,2013-06-02 11:47:00,
2013-06-02 06:52:00,56.1,56.1,29.97,West,281,0.0,1.1,100,0.00,CLR,,0.00,WeatherDisplay:10.37,2013-06-02 11:52:00,
2013-06-02 06:58:00,56.5,55.1,29.97,NW,309,0.0,1.1,95,0.00,CLR,,0.00,WeatherDisplay:10.37,2013-06-02 11:58:00,
2013-06-02 07:03:00,56.6,55.2,29.97,NW,317,0.8,4.6,95,0.00,CLR,,0.00,WeatherDisplay:10.37,2013-06-02 12:03:00,
2013-06-02 07:08:00,56.9,55.2,29.97,NW,309,1.8,1.8,94,0.00,CLR,,0.00,WeatherDisplay:10.37,2013-06-02 12:08:00,
2013-06-02 07:13:00,57.2,55.5,29.97,WNW,303,0.0,0.0,94,0.00,CLR,,0.00,WeatherDisplay:10.37,2013-06-02 12:13:00,
2013-06-02 07:18:00,57.3,55.6,29.97,ENE,77,0.5,3.5,94,0.00,CLR,,0.00,WeatherDisplay:10.37,2013-06-02 12:18:00,
2013-06-02 07:23:00,57.5,55.8,29.97,NW,314,0.0,0.0,94,0.00,CLR,,0.00,WeatherDisplay:10.37,2013-06-02 12:23:00,
2013-06-02 07:28:00,57.8,56.1,29.97,NNW,343,0.0,0.0,94,0.00,CLR,,0.00,WeatherDisplay:10.37,2013-06-02 12:28:00,
2013-06-02 07:33:00,58.0,56.0,29.97,WNW,288,2.6,10.4,93,0.00,CLR,,0.00,WeatherDisplay:10.37,2013-06-02 12:33:00,
2013-06-02 07:38:00,58.2,56.2,29.97,NNE,20,1.2,5.8,93,0.00,CLR,,0.00,WeatherDisplay:10.37,2013-06-02 12:38:00,
2013-06-02 07:43:00,58.4,56.1,29.97,NW,316,2.2,4.6,92,0.00,CLR,,0.00,WeatherDisplay:10.37,2013-06-02 12:43:00,
2013-06-02 07:48:00,58.6,56.3,29.97,West,277,0.0,0.0,92,0.00,CLR,,0.00,WeatherDisplay:10.37,2013-06-02 12:48:00,
2013-06-02 07:53:00,58.7,56.1,29.97,NW,305,0.0,0.0,91,0.00,CLR,,0.00,WeatherDisplay:10.37,2013-06-02 12:53:00,
2013-06-02 07:58:00,58.9,56.3,29.98,NW,304,0.0,1.0,91,0.00,CLR,,0.00,WeatherDisplay:10.37,2013-06-02 12:58:00,
2013-06-02 08:03:00,59.0,56.4,29.97,WNW,298,1.0,3.5,91,0.00,CLR,,0.00,WeatherDisplay:10.37,2013-06-02 13:03:00,
2013-06-02 08:08:00,59.1,56.5,29.97,WNW,297,0.4,3.5,91,0.00,CLR,,0.00,WeatherDisplay:10.37,2013-06-02 13:08:00,
2013-06-02 08:13:00,59.1,56.5,29.98,WNW,295,2.3,6.0,91,0.00,CLR,,0.00,WeatherDisplay:10.37,2013-06-02 13:13:00,
2013-06-02 08:18:00,59.2,56.6,29.97,WNW,297,0.0,2.3,91,0.00,CLR,,0.00,WeatherDisplay:10.37,2013-06-02 13:18:00,
2013-06-02 08:23:00,59.4,56.8,29.97,WNW,297,0.0,0.0,91,0.00,CLR,,0.00,WeatherDisplay:10.37,2013-06-02 13:23:00,
2013-06-02 08:28:00,59.6,56.7,29.97,North,352,0.0,0.0,90,0.00,CLR,,0.00,WeatherDisplay:10.37,2013-06-02 13:28:00,
2013-06-02 08:33:00,59.7,56.5,29.97,NNE,15,0.9,3.5,89,0.00,CLR,,0.00,WeatherDisplay:10.37,2013-06-02 13:33:00,
2013-06-02 08:38:00,59.9,56.3,29.98,NNW,339,0.8,2.3,88,0.00,CLR,,0.00,WeatherDisplay:10.37,2013-06-02 13:38:00,
2013-06-02 08:43:00,60.0,56.4,29.98,NNW,341,0.0,0.0,88,0.00,CLR,,0.00,WeatherDisplay:10.37,2013-06-02 13:43:00,
2013-06-02 08:48:00,60.2,56.6,29.98,NW,319,0.0,0.0,88,0.00,CLR,,0.00,WeatherDisplay:10.37,2013-06-02 13:48:00,
2013-06-02 08:53:00,60.5,56.9,29.98,NNW,331,0.0,0.0,88,0.00,CLR,,0.00,WeatherDisplay:10.37,2013-06-02 13:53:00,
2013-06-02 08:58:00,60.9,57.0,29.98,West,273,0.0,0.0,87,0.00,CLR,,0.00,WeatherDisplay:10.37,2013-06-02 13:58:00,
2013-06-02 09:03:00,61.0,56.5,29.98,WNW,293,0.0,0.0,85,0.00,CLR,,0.00,WeatherDisplay:10.37,2013-06-02 14:03:00,
2013-06-02 09:08:00,61.2,57.0,29.99,NW,315,0.0,0.0,86,0.00,CLR,,0.00,WeatherDisplay:10.37,2013-06-02 14:08:00,
2013-06-02 09:13:00,61.4,57.2,29.98,North,349,0.6,3.0,86,0.00,CLR,,0.00,WeatherDisplay:10.37,2013-06-02 14:13:00,
2013-06-02 09:18:00,61.6,57.0,29.98,NW,313,0.2,2.3,85,0.00,CLR,,0.00,WeatherDisplay:10.37,2013-06-02 14:18:00,
2013-06-02 09:23:00,61.6,56.7,29.98,NNW,339,0.0,0.0,84,0.00,CLR,,0.00,WeatherDisplay:10.37,2013-06-02 14:23:00,
2013-06-02 09:28:00,62.0,57.1,29.98,ENE,58,0.1,3.5,84,0.00,CLR,,0.00,WeatherDisplay:10.37,2013-06-02 14:28:00,
2013-06-02 09:33:00,62.5,56.9,29.97,NNE,20,0.2,4.6,82,0.00,CLR,,0.00,WeatherDisplay:10.37,2013-06-02 14:33:00,
2013-06-02 09:38:00,62.7,56.8,29.98,NNW,337,0.4,2.3,81,0.00,CLR,,0.00,WeatherDisplay:10.37,2013-06-02 14:38:00,
2013-06-02 09:43:00,62.9,56.3,29.98,NE,51,4.0,6.9,79,0.00,CLR,,0.00,WeatherDisplay:10.37,2013-06-02 14:43:00,
2013-06-02 09:48:00,63.4,56.4,29.98,NNW,345,1.0,1.1,78,0.00,CLR,,0.00,WeatherDisplay:10.37,2013-06-02 14:48:00,
2013-06-02 09:53:00,63.7,56.7,29.98,NNW,328,1.9,4.6,78,0.00,CLR,,0.00,WeatherDisplay:10.37,2013-06-02 14:53:00,
2013-06-02 09:58:00,63.9,56.9,29.98,West,262,0.0,0.0,78,0.00,CLR,,0.00,WeatherDisplay:10.37,2013-06-02 14:58:00,
2013-06-02 10:03:00,64.5,57.1,29.98,NW,305,0.1,1.0,77,0.00,CLR,,0.00,WeatherDisplay:10.37,2013-06-02 15:03:00,
2013-06-02 10:08:00,64.2,55.4,29.98,NNE,22,0.8,3.5,73,0.00,CLR,,0.00,WeatherDisplay:10.37,2013-06-02 15:08:00,
2013-06-02 10:13:00,64.4,57.0,29.99,West,278,0.5,3.5,77,0.00,CLR,,0.00,WeatherDisplay:10.37,2013-06-02 15:13:00,
2013-06-02 10:18:00,64.3,55.8,29.99,North,351,1.7,3.5,74,0.00,CLR,,0.00,WeatherDisplay:10.37,2013-06-02 15:18:00,
2013-06-02 10:23:00,63.9,56.2,29.99,WNW,289,0.0,1.1,76,0.00,CLR,,0.00,WeatherDisplay:10.37,2013-06-02 15:23:00,
2013-06-02 10:28:00,63.9,56.2,29.99,West,280,0.0,0.0,76,0.00,CLR,,0.00,WeatherDisplay:10.37,2013-06-02 15:28:00,
2013-06-02 10:33:00,63.7,55.6,29.99,WNW,301,1.5,5.8,75,0.00,CLR,,0.00,WeatherDisplay:10.37,2013-06-02 15:33:00,
2013-06-02 10:38:00,63.3,55.2,29.99,WNW,298,2.0,8.1,75,0.00,CLR,,0.00,WeatherDisplay:10.37,2013-06-02 15:38:00,
2013-06-02 10:43:00,63.2,55.9,29.99,West,276,2.7,4.6,77,0.00,CLR,,0.00,WeatherDisplay:10.37,2013-06-02 15:43:00,
2013-06-02 10:48:00,63.1,55.8,29.99,WNW,285,1.2,5.8,77,0.00,CLR,,0.00,WeatherDisplay:10.37,2013-06-02 15:48:00,
2013-06-02 10:53:00,62.8,55.1,29.99,NW,316,2.8,5.8,76,0.00,CLR,,0.00,WeatherDisplay:10.37,2013-06-02 15:53:00,
2013-06-02 10:58:00,62.6,55.3,29.99,NW,322,3.1,3.5,77,0.00,CLR,,0.00,WeatherDisplay:10.37,2013-06-02 15:58:00,
2013-06-02 11:03:00,62.8,55.8,29.99,WNW,297,3.8,6.9,78,0.00,CLR,,0.00,WeatherDisplay:10.37,2013-06-02 16:03:00,
2013-06-02 11:08:00,62.8,55.5,29.99,NNW,328,1.1,1.1,77,0.00,CLR,,0.00,WeatherDisplay:10.37,2013-06-02 16:08:00,
2013-06-02 11:13:00,63.0,55.3,30.00,NW,318,2.5,6.9,76,0.00,CLR,,0.00,WeatherDisplay:10.37,2013-06-02 16:13:00,
2013-06-02 11:18:00,62.9,55.6,30.00,NW,324,2.8,6.9,77,0.00,CLR,,0.00,WeatherDisplay:10.37,2013-06-02 16:18:00,
2013-06-02 11:23:00,62.6,55.6,30.00,NNW,328,2.5,3.0,78,0.00,CLR,,0.00,WeatherDisplay:10.37,2013-06-02 16:23:00,
2013-06-02 11:28:00,62.7,55.7,30.00,West,278,0.9,6.9,78,0.00,CLR,,0.00,WeatherDisplay:10.37,2013-06-02 16:28:00,
2013-06-02 11:33:00,62.7,55.4,30.00,NE,39,0.4,4.6,77,0.00,CLR,,0.00,WeatherDisplay:10.37,2013-06-02 16:33:00,
2013-06-02 11:38:00,63.2,55.9,30.00,West,277,0.0,0.0,77,0.00,CLR,,0.00,WeatherDisplay:10.37,2013-06-02 16:38:00,
2013-06-02 11:43:00,63.5,55.8,30.00,NNW,330,0.1,1.1,76,0.00,CLR,,0.00,WeatherDisplay:10.37,2013-06-02 16:43:00,
2013-06-02 11:48:00,63.6,56.3,30.00,NW,307,0.1,2.3,77,0.00,CLR,,0.00,WeatherDisplay:10.37,2013-06-02 16:48:00,
2013-06-02 11:53:00,63.3,55.6,30.00,NW,313,2.3,5.8,76,0.00,CLR,,0.00,WeatherDisplay:10.37,2013-06-02 16:53:00,
2013-06-02 11:58:00,63.1,55.4,30.01,NNE,16,0.0,4.0,76,0.00,CLR,,0.00,WeatherDisplay:10.37,2013-06-02 16:58:00,
2013-06-02 12:03:00,63.1,56.1,30.01,WNW,303,1.3,7.0,78,0.00,CLR,,0.00,WeatherDisplay:10.37,2013-06-02 17:03:00,
2013-06-02 12:08:00,62.7,55.4,30.01,West,265,3.3,5.8,77,0.00,CLR,,0.00,WeatherDisplay:10.37,2013-06-02 17:08:00,
2013-06-02 12:13:00,62.7,56.1,30.01,WNW,301,0.0,0.0,79,0.00,CLR,,0.00,WeatherDisplay:10.37,2013-06-02 17:13:00,
2013-06-02 12:18:00,62.9,56.6,30.01,NE,44,0.2,0.0,80,0.00,CLR,,0.00,WeatherDisplay:10.37,2013-06-02 17:18:00,
2013-06-02 12:23:00,62.9,56.3,30.01,WNW,285,0.0,4.6,79,0.00,CLR,,0.00,WeatherDisplay:10.37,2013-06-02 17:23:00,
2013-06-02 12:28:00,63.3,56.3,30.01,North,353,2.3,4.6,78,0.00,CLR,,0.00,WeatherDisplay:10.37,2013-06-02 17:28:00,
2013-06-02 12:33:00,63.2,55.5,30.02,NW,318,0.0,1.1,76,0.00,CLR,,0.00,WeatherDisplay:10.37,2013-06-02 17:33:00,
2013-06-02 12:38:00,63.1,56.1,30.01,NW,312,1.1,2.0,78,0.00,CLR,,0.00,WeatherDisplay:10.37,2013-06-02 17:38:00,
2013-06-02 12:44:00,62.8,55.5,30.01,North,1,2.3,8.1,77,0.00,CLR,,0.00,WeatherDisplay:10.37,2013-06-02 17:44:00,
2013-06-02 12:49:00,62.6,56.0,30.01,WNW,294,0.0,1.1,79,0.00,CLR,,0.00,WeatherDisplay:10.37,2013-06-02 17:49:00,
2013-06-02 12:54:00,63.0,56.4,30.01,NE,36,0.2,1.0,79,0.00,CLR,,0.00,WeatherDisplay:10.37,2013-06-02 17:54:00,
2013-06-02 12:59:00,63.3,56.0,30.01,West,280,2.8,5.8,77,0.00,CLR,,0.00,WeatherDisplay:10.37,2013-06-02 17:59:00,
2013-06-02 13:04:00,63.3,56.0,30.01,NE,41,1.6,3.5,77,0.00,CLR,,0.00,WeatherDisplay:10.37,2013-06-02 18:04:00,
2013-06-02 13:09:00,63.3,56.0,30.01,WNW,298,1.2,3.5,77,0.00,CLR,,0.00,WeatherDisplay:10.37,2013-06-02 18:09:00,
2013-06-02 13:14:00,63.2,55.9,30.01,WNW,292,1.6,4.6,77,0.00,CLR,,0.00,WeatherDisplay:10.37,2013-06-02 18:14:00,
2013-06-02 13:19:00,62.9,55.6,30.01,North,9,1.7,3.5,77,0.00,CLR,,0.00,WeatherDisplay:10.37,2013-06-02 18:19:00,
2013-06-02 13:24:00,62.9,56.3,30.01,NW,311,0.0,0.0,79,0.00,CLR,,0.00,WeatherDisplay:10.37,2013-06-02 18:24:00,
2013-06-02 13:29:00,62.7,56.1,30.01,WNW,291,0.8,3.5,79,0.00,CLR,,0.00,WeatherDisplay:10.37,2013-06-02 18:29:00,
2013-06-02 13:34:00,62.5,55.9,30.01,NNW,338,1.0,3.5,79,0.00,CLR,,0.00,WeatherDisplay:10.37,2013-06-02 18:34:00,
2013-06-02 13:39:00,62.3,55.7,30.01,WNW,298,0.6,4.0,79,0.00,CLR,,0.00,WeatherDisplay:10.37,2013-06-02 18:39:00,
2013-06-02 13:44:00,62.3,56.0,30.01,WNW,301,0.1,3.5,80,0.00,CLR,,0.00,WeatherDisplay:10.37,2013-06-02 18:44:00,
2013-06-02 13:49:00,62.2,55.3,30.01,NW,307,4.7,8.1,78,0.00,CLR,,0.00,WeatherDisplay:10.37,2013-06-02 18:49:00,
2013-06-02 13:54:00,62.3,55.7,30.01,NNE,12,2.4,8.1,79,0.00,CLR,,0.00,WeatherDisplay:10.37,2013-06-02 18:54:00,
2013-06-02 13:59:00,62.7,56.4,30.01,NW,323,0.0,0.0,80,0.00,CLR,,0.00,WeatherDisplay:10.37,2013-06-02 18:59:00,
2013-06-02 14:04:00,63.0,56.0,30.01,NW,307,0.1,2.3,78,0.00,CLR,,0.00,WeatherDisplay:10.37,2013-06-02 19:04:00,
2013-06-02 14:09:00,63.4,55.7,30.00,NNW,334,1.6,4.6,76,0.00,CLR,,0.00,WeatherDisplay:10.37,2013-06-02 19:09:00,
2013-06-02 14:14:00,63.8,56.4,30.00,WNW,295,1.9,3.5,77,0.00,CLR,,0.00,WeatherDisplay:10.37,2013-06-02 19:14:00,
2013-06-02 14:19:00,63.9,56.9,30.00,NNE,15,0.5,4.0,78,0.00,CLR,,0.00,WeatherDisplay:10.37,2013-06-02 19:19:00,
2013-06-02 14:24:00,63.6,56.3,30.00,NW,309,3.8,8.1,77,0.00,CLR,,0.00,WeatherDisplay:10.37,2013-06-02 19:24:00,
2013-06-02 14:29:00,63.0,56.0,30.00,NW,312,3.8,5.0,78,0.00,CLR,,0.00,WeatherDisplay:10.37,2013-06-02 19:29:00,
2013-06-02 14:34:00,62.6,56.3,30.00,NNW,337,0.7,6.9,80,0.00,CLR,,0.00,WeatherDisplay:10.37,2013-06-02 19:34:00,
2013-06-02 14:39:00,62.4,55.8,30.00,WNW,297,3.0,8.1,79,0.00,CLR,,0.00,WeatherDisplay:10.37,2013-06-02 19:39:00,
2013-06-02 14:44:00,62.3,56.0,30.00,NW,326,0.0,1.1,80,0.00,CLR,,0.00,WeatherDisplay:10.37,2013-06-02 19:44:00,
2013-06-02 14:49:00,62.8,56.9,30.00,WNW,292,0.0,0.0,81,0.00,CLR,,0.00,WeatherDisplay:10.37,2013-06-02 19:49:00,
2013-06-02 14:54:00,62.8,55.5,30.00,West,281,2.4,5.8,77,0.00,CLR,,0.00,WeatherDisplay:10.37,2013-06-02 19:54:00,
2013-06-02 14:59:00,63.0,56.7,30.00,WNW,301,0.0,0.0,80,0.00,CLR,,0.00,WeatherDisplay:10.37,2013-06-02 19:59:00,
2013-06-02 15:04:00,63.3,56.0,30.00,WNW,301,3.7,6.0,77,0.00,CLR,,0.00,WeatherDisplay:10.37,2013-06-02 20:04:00,
2013-06-02 15:09:00,63.3,56.0,30.00,NE,55,0.9,3.5,77,0.00,CLR,,0.00,WeatherDisplay:10.37,2013-06-02 20:09:00,
2013-06-02 15:14:00,63.4,56.4,30.00,SW,228,0.0,2.3,78,0.00,CLR,,0.00,WeatherDisplay:10.37,2013-06-02 20:14:00,
2013-06-02 15:19:00,63.9,56.5,29.99,WSW,257,1.3,4.6,77,0.00,CLR,,0.00,WeatherDisplay:10.37,2013-06-02 20:19:00,
2013-06-02 15:24:00,64.1,57.1,29.99,WNW,283,1.8,3.0,78,0.00,CLR,,0.00,WeatherDisplay:10.37,2013-06-02 20:24:00,
2013-06-02 15:29:00,64.0,57.0,29.99,NNW,335,0.3,5.8,78,0.00,CLR,,0.00,WeatherDisplay:10.37,2013-06-02 20:29:00,
2013-06-02 15:34:00,63.4,56.1,29.99,NW,316,1.5,3.5,77,0.00,CLR,,0.00,WeatherDisplay:10.37,2013-06-02 20:34:00,
2013-06-02 15:39:00,63.0,56.4,29.99,NNW,333,0.0,3.5,79,0.00,CLR,,0.00,WeatherDisplay:10.37,2013-06-02 20:39:00,
2013-06-02 15:44:00,63.0,56.4,29.99,NNW,342,0.6,4.6,79,0.00,CLR,,0.00,WeatherDisplay:10.37,2013-06-02 20:44:00,
2013-06-02 15:49:00,63.2,56.2,29.99,NW,313,2.9,4.6,78,0.00,CLR,,0.00,WeatherDisplay:10.37,2013-06-02 20:49:00,
2013-06-02 15:54:00,63.5,56.9,29.99,SW,233,0.0,0.0,79,0.00,CLR,,0.00,WeatherDisplay:10.37,2013-06-02 20:54:00,
2013-06-02 15:59:00,63.8,56.8,29.99,NNW,341,2.1,6.9,78,0.00,CLR,,0.00,WeatherDisplay:10.37,2013-06-02 20:59:00,
2013-06-02 16:04:00,63.5,57.2,29.99,WNW,282,0.0,0.0,80,0.00,CLR,,0.00,WeatherDisplay:10.37,2013-06-02 21:04:00,
2013-06-02 16:09:00,63.2,56.2,29.99,NW,322,0.9,3.5,78,0.00,CLR,,0.00,WeatherDisplay:10.37,2013-06-02 21:09:00,
2013-06-02 16:14:00,63.1,56.8,29.99,NW,304,1.0,5.8,80,0.00,CLR,,0.00,WeatherDisplay:10.37,2013-06-02 21:14:00,
2013-06-02 16:19:00,63.0,56.4,29.99,WNW,293,1.7,3.0,79,0.00,CLR,,0.00,WeatherDisplay:10.37,2013-06-02 21:19:00,
2013-06-02 16:24:00,62.9,56.3,29.99,West,281,0.3,3.5,79,0.00,CLR,,0.00,WeatherDisplay:10.37,2013-06-02 21:24:00,
2013-06-02 16:29:00,62.9,56.3,29.99,NNW,328,0.7,4.0,79,0.00,CLR,,0.00,WeatherDisplay:10.37,2013-06-02 21:29:00,
2013-06-02 16:34:00,63.0,56.7,29.99,West,280,0.0,0.0,80,0.00,CLR,,0.00,WeatherDisplay:10.37,2013-06-02 21:34:00,
2013-06-02 16:39:00,62.8,56.5,29.99,NW,323,0.0,1.1,80,0.00,CLR,,0.00,WeatherDisplay:10.37,2013-06-02 21:39:00,
2013-06-02 16:44:00,62.7,56.8,29.99,WNW,295,0.0,1.1,81,0.00,CLR,,0.00,WeatherDisplay:10.37,2013-06-02 21:44:00,
2013-06-02 16:49:00,62.4,56.1,29.99,WNW,294,4.0,5.8,80,0.00,CLR,,0.00,WeatherDisplay:10.37,2013-06-02 21:49:00,
2013-06-02 16:54:00,62.1,56.2,29.99,North,4,0.3,2.0,81,0.00,CLR,,0.00,WeatherDisplay:10.37,2013-06-02 21:54:00,
2013-06-02 16:59:00,62.0,56.1,29.99,WNW,298,0.5,3.5,81,0.00,CLR,,0.00,WeatherDisplay:10.37,2013-06-02 21:59:00,
2013-06-02 17:04:00,61.8,55.9,29.99,NW,312,0.1,3.5,81,0.00,CLR,,0.00,WeatherDisplay:10.37,2013-06-02 22:04:00,
2013-06-02 17:09:00,61.6,55.7,29.99,NNW,329,0.1,3.5,81,0.00,CLR,,0.00,WeatherDisplay:10.37,2013-06-02 22:09:00,
2013-06-02 17:14:00,61.6,56.0,29.99,North,350,0.0,0.0,82,0.00,CLR,,0.00,WeatherDisplay:10.37,2013-06-02 22:14:00,
2013-06-02 17:19:00,61.6,56.4,29.99,NW,307,0.0,0.0,83,0.00,CLR,,0.00,WeatherDisplay:10.37,2013-06-02 22:19:00,
2013-06-02 17:24:00,61.5,56.0,29.99,NW,305,0.0,0.0,82,0.00,CLR,,0.00,WeatherDisplay:10.37,2013-06-02 22:24:00,
2013-06-02 17:29:00,61.5,55.6,29.99,NNW,333,0.5,2.3,81,0.00,CLR,,0.00,WeatherDisplay:10.37,2013-06-02 22:29:00,
2013-06-02 17:34:00,61.5,55.6,29.99,NNE,16,0.5,3.5,81,0.00,CLR,,0.00,WeatherDisplay:10.37,2013-06-02 22:34:00,
2013-06-02 17:39:00,61.6,55.7,29.99,North,351,0.0,2.3,81,0.00,CLR,,0.00,WeatherDisplay:10.37,2013-06-02 22:39:00,
2013-06-02 17:44:00,61.6,56.0,29.99,WNW,297,0.3,1.1,82,0.00,CLR,,0.00,WeatherDisplay:10.37,2013-06-02 22:44:00,
2013-06-02 17:49:00,61.6,56.0,29.99,NW,309,0.0,0.0,82,0.00,CLR,,0.00,WeatherDisplay:10.37,2013-06-02 22:49:00,
2013-06-02 17:54:00,61.5,56.3,29.99,WNW,295,0.3,0.0,83,0.00,CLR,,0.00,WeatherDisplay:10.37,2013-06-02 22:54:00,
2013-06-02 17:59:00,61.3,56.1,29.99,West,273,0.4,3.5,83,0.00,CLR,,0.00,WeatherDisplay:10.37,2013-06-02 22:59:00,
2013-06-02 18:05:00,61.3,56.1,29.99,NW,304,0.0,1.1,83,0.00,CLR,,0.00,WeatherDisplay:10.37,2013-06-02 23:05:00,
2013-06-02 18:10:00,61.2,56.0,29.99,WNW,300,0.0,0.0,83,0.00,CLR,,0.00,WeatherDisplay:10.37,2013-06-02 23:10:00,
2013-06-02 18:15:00,61.1,55.9,29.99,NNE,13,0.0,1.1,83,0.00,CLR,,0.00,WeatherDisplay:10.37,2013-06-02 23:15:00,
2013-06-02 18:20:00,61.0,55.5,29.99,WNW,302,0.0,0.0,82,0.00,CLR,,0.00,WeatherDisplay:10.37,2013-06-02 23:20:00,
2013-06-02 18:25:00,61.1,55.9,29.99,NW,322,0.4,1.0,83,0.00,CLR,,0.00,WeatherDisplay:10.37,2013-06-02 23:25:00,
2013-06-02 18:30:00,61.1,55.6,29.99,North,9,0.1,1.1,82,0.00,CLR,,0.00,WeatherDisplay:10.37,2013-06-02 23:30:00,
2013-06-02 18:35:00,61.0,55.5,29.99,NW,305,0.0,0.0,82,0.00,CLR,,0.00,WeatherDisplay:10.37,2013-06-02 23:35:00,
2013-06-02 18:40:00,61.0,55.5,29.99,WNW,299,0.0,0.0,82,0.00,CLR,,0.00,WeatherDisplay:10.37,2013-06-02 23:40:00,
2013-06-02 18:45:00,61.0,55.8,29.99,North,354,0.0,0.0,83,0.00,CLR,,0.00,WeatherDisplay:10.37,2013-06-02 23:45:00,
2013-06-02 18:50:00,60.9,55.7,29.99,West,266,0.0,0.0,83,0.00,CLR,,0.00,WeatherDisplay:10.37,2013-06-02 23:50:00,
2013-06-02 18:55:00,60.9,55.7,29.99,WNW,291,0.0,0.0,83,0.00,CLR,,0.00,WeatherDisplay:10.37,2013-06-02 23:55:00,
2013-06-02 19:00:00,60.8,55.6,29.99,NW,322,0.5,2.3,83,0.00,CLR,,0.00,WeatherDisplay:10.37,2013-06-03 00:00:00,
2013-06-02 19:05:00,60.7,55.5,29.99,NNW,330,0.0,0.0,83,0.00,CLR,,0.00,WeatherDisplay:10.37,2013-06-03 00:05:00,
2013-06-02 19:10:00,60.6,55.7,29.99,NW,316,0.0,0.0,84,0.00,CLR,,0.00,WeatherDisplay:10.37,2013-06-03 00:10:00,
2013-06-02 19:15:00,60.5,55.6,29.99,WNW,285,0.1,1.1,84,0.00,CLR,,0.00,WeatherDisplay:10.37,2013-06-03 00:15:00,
2013-06-02 19:20:00,60.5,55.6,29.99,North,5,0.2,2.3,84,0.00,CLR,,0.00,WeatherDisplay:10.37,2013-06-03 00:20:00,
2013-06-02 19:25:00,60.4,55.5,29.99,NNW,329,0.3,3.5,84,0.00,CLR,,0.00,WeatherDisplay:10.37,2013-06-03 00:25:00,
2013-06-02 19:30:00,60.3,55.4,29.99,NW,304,0.0,0.0,84,0.00,CLR,,0.00,WeatherDisplay:10.37,2013-06-03 00:30:00,
2013-06-02 19:35:00,60.2,55.7,29.98,WNW,294,0.0,0.0,85,0.00,CLR,,0.00,WeatherDisplay:10.37,2013-06-03 00:35:00,
2013-06-02 19:40:00,60.1,55.6,29.99,NNE,30,0.4,2.3,85,0.00,CLR,,0.00,WeatherDisplay:10.37,2013-06-03 00:40:00,
2013-06-02 19:45:00,60.1,55.9,29.99,NNW,335,0.0,0.0,86,0.00,CLR,,0.00,WeatherDisplay:10.37,2013-06-03 00:45:00,
2013-06-02 19:50:00,60.0,55.5,29.99,North,356,0.0,0.0,85,0.00,CLR,,0.00,WeatherDisplay:10.37,2013-06-03 00:50:00,
2013-06-02 19:55:00,59.9,55.7,29.99,NE,39,0.0,0.0,86,0.00,CLR,,0.00,WeatherDisplay:10.37,2013-06-03 00:55:00,
2013-06-02 20:00:00,59.8,55.6,29.99,NW,304,0.0,0.0,86,0.00,CLR,,0.00,WeatherDisplay:10.37,2013-06-03 01:00:00,
2013-06-02 20:05:00,59.8,55.6,29.99,NW,304,0.0,0.0,86,0.00,CLR,,0.00,WeatherDisplay:10.37,2013-06-03 01:05:00,
2013-06-02 20:10:00,59.7,55.5,29.99,North,353,0.0,0.0,86,0.00,CLR,,0.00,WeatherDisplay:10.37,2013-06-03 01:10:00,
2013-06-02 20:15:00,59.6,55.4,29.99,WNW,302,0.0,0.0,86,0.00,CLR,,0.00,WeatherDisplay:10.37,2013-06-03 01:15:00,
2013-06-02 20:20:00,59.6,55.7,29.99,WNW,302,0.0,0.0,87,0.00,CLR,,0.00,WeatherDisplay:10.37,2013-06-03 01:20:00,
2013-06-02 20:25:00,59.4,55.5,29.99,WNW,302,0.0,0.0,87,0.00,CLR,,0.00,WeatherDisplay:10.37,2013-06-03 01:25:00,
2013-06-02 20:30:00,59.3,55.4,29.99,North,354,0.0,0.0,87,0.00,CLR,,0.00,WeatherDisplay:10.37,2013-06-03 01:30:00,
2013-06-02 20:35:00,59.2,55.3,29.99,North,1,0.0,0.0,87,0.00,CLR,,0.00,WeatherDisplay:10.37,2013-06-03 01:35:00,
2013-06-02 20:40:00,59.1,55.2,29.99,NNW,333,0.0,0.0,87,0.00,CLR,,0.00,WeatherDisplay:10.37,2013-06-03 01:40:00,
2013-06-02 20:45:00,59.1,55.5,29.99,NNW,343,0.0,0.0,88,0.00,CLR,,0.00,WeatherDisplay:10.37,2013-06-03 01:45:00,
2013-06-02 20:50:00,59.1,55.5,29.99,NNW,343,0.0,0.0,88,0.00,CLR,,0.00,WeatherDisplay:10.37,2013-06-03 01:50:00,
2013-06-02 20:55:00,59.0,55.4,29.99,NNE,29,0.0,0.0,88,0.00,CLR,,0.00,WeatherDisplay:10.37,2013-06-03 01:55:00,
2013-06-02 21:00:00,58.9,55.4,29.99,NNE,28,0.0,0.0,88,0.00,,,0.00,WeatherDisplay:10.37,2013-06-03 02:00:00,
2013-06-02 21:05:00,58.8,55.3,29.99,NNE,29,0.0,0.0,88,0.00,,,0.00,WeatherDisplay:10.37,2013-06-03 02:05:00,
2013-06-02 21:10:00,58.7,55.5,29.99,NNE,28,0.0,0.0,89,0.00,,,0.00,WeatherDisplay:10.37,2013-06-03 02:10:00,
2013-06-02 21:15:00,58.6,55.4,30.00,NNE,28,0.0,0.0,89,0.00,,,0.00,WeatherDisplay:10.37,2013-06-03 02:15:00,
2013-06-02 21:20:00,58.4,55.2,29.99,NNE,29,0.0,0.0,89,0.00,,,0.00,WeatherDisplay:10.37,2013-06-03 02:20:00,
2013-06-02 21:25:00,58.3,55.1,29.99,NNE,28,0.0,0.0,89,0.00,,,0.00,WeatherDisplay:10.37,2013-06-03 02:25:00,
2013-06-02 21:30:00,58.0,55.1,30.00,NNE,28,0.0,0.0,90,0.00,,,0.00,WeatherDisplay:10.37,2013-06-03 02:30:00,
2013-06-02 21:35:00,57.9,55.3,30.00,NNE,29,0.0,0.0,91,0.00,,,0.00,WeatherDisplay:10.37,2013-06-03 02:35:00,
2013-06-02 21:40:00,57.9,55.3,30.00,NNE,29,0.0,0.0,91,0.00,,,0.00,WeatherDisplay:10.37,2013-06-03 02:40:00,
2013-06-02 21:45:00,57.8,55.2,30.00,NNE,29,0.0,0.0,91,0.00,,,0.00,WeatherDisplay:10.37,2013-06-03 02:45:00,
2013-06-02 21:50:00,57.6,55.0,30.00,NNE,28,0.0,0.0,91,0.00,,,0.00,WeatherDisplay:10.37,2013-06-03 02:50:00,
2013-06-02 21:55:00,57.4,55.1,30.00,NNE,28,0.0,0.0,92,0.00,,,0.00,WeatherDisplay:10.37,2013-06-03 02:55:00,
2013-06-02 22:00:00,57.4,55.1,30.00,NNE,29,0.0,0.0,92,0.00,,,0.00,WeatherDisplay:10.37,2013-06-03 03:00:00,
2013-06-02 22:05:00,57.5,55.2,30.00,NNE,28,0.0,0.0,92,0.00,,,0.00,WeatherDisplay:10.37,2013-06-03 03:05:00,
2013-06-02 22:10:00,57.5,55.2,30.00,NNE,29,0.0,0.0,92,0.00,,,0.00,WeatherDisplay:10.37,2013-06-03 03:10:00,
2013-06-02 22:15:00,57.5,55.2,30.00,NNE,29,0.0,0.0,92,0.00,,,0.00,WeatherDisplay:10.37,2013-06-03 03:15:00,
2013-06-02 22:20:00,57.5,55.2,30.00,NNE,29,0.0,0.0,92,0.00,,,0.00,WeatherDisplay:10.37,2013-06-03 03:20:00,
2013-06-02 22:25:00,57.4,55.1,30.00,NNE,28,0.0,0.0,92,0.00,,,0.00,WeatherDisplay:10.37,2013-06-03 03:25:00,
2013-06-02 22:30:00,57.2,54.9,30.00,NNE,29,0.0,0.0,92,0.00,,,0.00,WeatherDisplay:10.37,2013-06-03 03:30:00,
2013-06-02 22:35:00,57.1,55.1,30.00,NNE,28,0.0,0.0,93,0.00,,,0.00,WeatherDisplay:10.37,2013-06-03 03:35:00,
2013-06-02 22:40:00,57.1,55.1,30.00,NNE,29,0.0,0.0,93,0.00,,,0.00,WeatherDisplay:10.37,2013-06-03 03:40:00,
2013-06-02 22:45:00,57.0,55.0,30.00,NNE,29,0.0,0.0,93,0.00,,,0.00,WeatherDisplay:10.37,2013-06-03 03:45:00,
2013-06-02 22:50:00,56.7,54.4,30.00,NNE,28,0.0,0.0,92,0.00,,,0.00,WeatherDisplay:10.37,2013-06-03 03:50:00,
2013-06-02 22:55:00,56.5,54.5,30.00,NNE,28,0.0,0.0,93,0.00,,,0.00,WeatherDisplay:10.37,2013-06-03 03:55:00,
2013-06-02 23:00:00,56.2,54.2,30.00,NNE,28,0.0,0.0,93,0.00,,,0.00,WeatherDisplay:10.37,2013-06-03 04:00:00,
2013-06-02 23:01:00,56.2,54.2,30.00,NNE,28,0.0,0.0,93,0.00,,,0.00,WeatherDisplay:10.37,2013-06-03 04:01:00,
2013-06-02 23:02:00,56.1,54.1,30.00,NNE,28,0.0,0.0,93,0.00,,,0.00,WeatherDisplay:10.37,2013-06-03 04:02:00,
2013-06-02 23:07:00,55.9,53.9,30.00,NNE,28,0.0,0.0,93,0.00,,,0.00,WeatherDisplay:10.37,2013-06-03 04:07:00,
2013-06-02 23:12:00,55.7,54.0,30.00,NNE,28,0.0,0.0,94,0.00,,,0.00,WeatherDisplay:10.37,2013-06-03 04:12:00,
2013-06-02 23:17:00,55.4,53.7,30.00,NNE,28,0.0,0.0,94,0.00,,,0.00,WeatherDisplay:10.37,2013-06-03 04:17:00,
2013-06-02 23:22:00,55.3,53.6,30.00,NNE,28,0.0,0.0,94,0.00,,,0.00,WeatherDisplay:10.37,2013-06-03 04:22:00,
2013-06-02 23:27:00,55.3,53.9,30.00,NNE,29,0.0,0.0,95,0.00,,,0.00,WeatherDisplay:10.37,2013-06-03 04:27:00,
2013-06-02 23:32:00,55.2,53.8,30.00,NNE,28,0.0,0.0,95,0.00,,,0.00,WeatherDisplay:10.37,2013-06-03 04:32:00,
2013-06-02 23:37:00,55.0,53.6,30.00,NNE,29,0.0,0.0,95,0.00,,,0.00,WeatherDisplay:10.37,2013-06-03 04:37:00,
2013-06-02 23:42:00,55.1,53.7,30.00,NE,35,0.0,0.0,95,0.00,,,0.00,WeatherDisplay:10.37,2013-06-03 04:42:00,
2013-06-02 23:47:00,55.0,53.6,30.00,NE,35,0.0,0.0,95,0.00,,,0.00,WeatherDisplay:10.37,2013-06-03 04:47:00,
2013-06-02 23:52:00,54.8,53.4,29.99,NE,36,0.0,0.0,95,0.00,,,0.00,WeatherDisplay:10.37,2013-06-03 04:52:00,
2013-06-02 23:57:00,54.8,53.4,29.99,NE,37,0.0,0.0,95,0.00,,,0.00,WeatherDisplay:10.37,2013-06-03 04:57:00,